createdAt,value
2022-11-09T00:00:02.390Z,2.22
2022-11-09T00:02:31.763Z,2.80
2022-11-09T00:04:58.844Z,3.00
2022-11-09T00:07:25.881Z,3.08
2022-11-09T00:09:53.030Z,2.78
2022-11-09T00:12:20.105Z,3.00
2022-11-09T00:14:47.235Z,2.50
2022-11-09T00:17:14.476Z,3.55
2022-11-09T00:19:41.530Z,2.20
2022-11-09T00:22:08.585Z,2.08
2022-11-09T00:24:35.736Z,2.55
2022-11-09T00:27:02.825Z,2.05
2022-11-09T00:29:29.926Z,1.98
2022-11-09T00:31:56.974Z,1.55
2022-11-09T00:34:24.092Z,1.60
2022-11-09T00:36:51.131Z,1.45
2022-11-09T00:39:18.299Z,1.40
2022-11-09T00:41:45.359Z,1.13
2022-11-09T00:44:12.460Z,0.90
2022-11-09T00:46:39.714Z,1.20
2022-11-09T00:49:06.939Z,1.38
2022-11-09T00:51:34.096Z,1.55
2022-11-09T00:54:01.189Z,0.93
2022-11-09T00:56:29.193Z,0.98
2022-11-09T00:58:56.366Z,0.90
2022-11-09T01:01:23.836Z,0.98
2022-11-09T01:03:51.109Z,1.23
2022-11-09T01:06:23.756Z,1.08
2022-11-09T01:08:51.974Z,1.10
2022-11-09T01:11:20.264Z,0.88
2022-11-09T01:13:47.892Z,1.00
2022-11-09T01:16:18.161Z,0.68
2022-11-09T01:18:46.020Z,1.25
2022-11-09T01:21:15.359Z,0.70
2022-11-09T01:23:43.087Z,0.73
2022-11-09T01:26:12.628Z,0.80
2022-11-09T01:31:14.451Z,0.80
2022-11-09T01:33:42.417Z,0.63
2022-11-09T01:36:12.801Z,0.75
2022-11-09T01:38:40.274Z,0.52
2022-11-09T01:41:13.853Z,0.73
2022-11-09T01:43:41.104Z,0.95
2022-11-09T01:46:28.383Z,0.95
2022-11-09T01:49:03.359Z,0.82
2022-11-09T01:51:50.674Z,1.13
2022-11-09T01:54:23.381Z,0.80
2022-11-09T01:56:54.233Z,1.30
2022-11-09T01:59:27.378Z,1.00
2022-11-09T02:01:54.624Z,1.30
2022-11-09T02:04:27.589Z,1.10
2022-11-09T02:06:57.269Z,0.95
2022-11-09T02:09:31.072Z,0.80
2022-11-09T02:12:00.117Z,0.80
2022-11-09T02:14:29.906Z,0.68
2022-11-09T02:16:57.144Z,0.60
2022-11-09T02:19:24.277Z,0.68
2022-11-09T02:21:51.649Z,0.85
2022-11-09T02:24:19.382Z,0.60
2022-11-09T02:26:52.120Z,0.80
2022-11-09T02:29:27.539Z,0.60
2022-11-09T02:31:59.707Z,0.82
2022-11-09T02:34:27.933Z,0.90
2022-11-09T02:36:55.180Z,0.40
2022-11-09T02:39:25.550Z,0.70
2022-11-09T02:42:02.969Z,0.70
2022-11-09T02:44:38.260Z,0.82
2022-11-09T02:47:05.319Z,1.00
2022-11-09T02:49:32.413Z,0.65
2022-11-09T02:51:59.755Z,0.80
2022-11-09T02:54:26.807Z,1.00
2022-11-09T02:56:54.771Z,0.90
2022-11-09T02:59:22.349Z,1.10
2022-11-09T03:01:49.609Z,1.00
2022-11-09T03:04:16.716Z,0.95
2022-11-09T03:06:44.168Z,1.05
2022-11-09T03:09:14.919Z,0.93
2022-11-09T03:11:43.029Z,0.65
2022-11-09T03:14:12.263Z,0.80
2022-11-09T03:16:50.233Z,0.80
2022-11-09T03:19:18.103Z,0.70
2022-11-09T03:21:47.078Z,0.60
2022-11-09T03:24:14.168Z,0.98
2022-11-09T03:26:42.245Z,1.17
2022-11-09T03:29:09.382Z,0.82
2022-11-09T03:31:36.984Z,0.63
2022-11-09T03:34:07.790Z,0.70
2022-11-09T03:36:35.856Z,0.60
2022-11-09T03:39:03.435Z,0.40
2022-11-09T03:41:30.667Z,0.50
2022-11-09T03:43:57.756Z,0.50
2022-11-09T03:46:24.830Z,0.50
2022-11-09T03:48:51.884Z,0.40
2022-11-09T03:51:19.280Z,0.50
2022-11-09T03:53:46.394Z,1.00
2022-11-09T03:56:13.469Z,0.52
2022-11-09T03:58:40.532Z,0.70
2022-11-09T04:01:07.718Z,0.85
2022-11-09T04:03:34.887Z,0.85
2022-11-09T04:06:01.960Z,1.00
2022-11-09T04:08:29.062Z,0.95
2022-11-09T04:10:56.136Z,0.80
2022-11-09T04:13:23.196Z,0.90
2022-11-09T04:15:50.290Z,0.90
2022-11-09T04:18:17.483Z,1.20
2022-11-09T04:20:45.073Z,0.95
2022-11-09T04:23:13.818Z,1.00
2022-11-09T04:25:41.732Z,1.07
2022-11-09T04:28:12.341Z,0.90
2022-11-09T04:30:39.502Z,1.20
2022-11-09T04:33:06.560Z,0.55
2022-11-09T04:35:34.738Z,1.20
2022-11-09T04:38:06.832Z,0.82
2022-11-09T04:40:35.712Z,1.20
2022-11-09T04:43:04.975Z,1.60
2022-11-09T04:45:35.742Z,0.63
2022-11-09T04:48:05.289Z,0.77
2022-11-09T04:53:08.329Z,0.90
2022-11-09T04:55:35.894Z,0.95
2022-11-09T04:58:03.112Z,0.80
2022-11-09T05:00:31.011Z,0.80
2022-11-09T05:03:05.357Z,1.02
2022-11-09T05:05:37.231Z,0.88
2022-11-09T05:08:05.843Z,1.20
2022-11-09T05:10:32.951Z,1.20
2022-11-09T05:13:02.186Z,1.05
2022-11-09T05:15:29.299Z,1.40
2022-11-09T05:17:57.038Z,1.10
2022-11-09T05:20:24.777Z,1.00
2022-11-09T05:23:10.929Z,1.00
2022-11-09T05:25:38.010Z,1.20
2022-11-09T05:28:05.647Z,1.02
2022-11-09T05:30:32.772Z,1.00
2022-11-09T05:32:59.831Z,0.90
2022-11-09T05:35:26.890Z,1.15
2022-11-09T05:37:53.959Z,1.30
2022-11-09T05:40:21.264Z,1.25
2022-11-09T05:42:48.320Z,1.48
2022-11-09T05:48:05.169Z,1.48
2022-11-09T05:50:32.433Z,1.70
2022-11-09T05:53:18.090Z,1.67
2022-11-09T05:55:45.427Z,2.30
2022-11-09T05:58:12.556Z,1.80
2022-11-09T06:00:39.689Z,1.52
2022-11-09T06:03:08.504Z,1.67
2022-11-09T06:05:36.685Z,1.50
2022-11-09T06:08:05.626Z,1.42
2022-11-09T06:10:32.912Z,1.45
2022-11-09T06:12:59.966Z,1.45
2022-11-09T06:15:27.141Z,1.20
2022-11-09T06:17:55.352Z,1.40
2022-11-09T06:20:23.124Z,1.52
2022-11-09T06:22:56.564Z,1.30
2022-11-09T06:25:28.112Z,1.75
2022-11-09T06:27:55.785Z,1.23
2022-11-09T06:30:23.353Z,1.13
2022-11-09T06:32:50.388Z,1.67
2022-11-09T06:35:17.491Z,1.35
2022-11-09T06:37:44.528Z,1.42
2022-11-09T06:40:12.580Z,1.42
2022-11-09T06:42:39.723Z,1.00
2022-11-09T06:45:07.330Z,1.00
2022-11-09T06:47:34.369Z,1.15
2022-11-09T06:50:01.472Z,0.80
2022-11-09T06:52:28.510Z,0.80
2022-11-09T06:54:55.572Z,1.05
2022-11-09T06:57:22.649Z,0.70
2022-11-09T06:59:49.737Z,1.33
2022-11-09T07:02:18.165Z,0.82
2022-11-09T07:04:45.580Z,1.00
2022-11-09T07:07:12.984Z,0.90
2022-11-09T07:09:40.072Z,0.70
2022-11-09T07:12:07.222Z,0.50
2022-11-09T07:14:34.364Z,0.88
2022-11-09T07:17:01.737Z,1.02
2022-11-09T07:19:29.867Z,0.65
2022-11-09T07:21:57.414Z,0.50
2022-11-09T07:24:24.473Z,0.80
2022-11-09T07:26:51.762Z,0.50
2022-11-09T07:29:18.881Z,1.08
2022-11-09T07:31:45.995Z,0.90
2022-11-09T07:34:13.143Z,0.77
2022-11-09T07:36:40.385Z,0.90
2022-11-09T07:39:07.512Z,1.20
2022-11-09T07:41:35.103Z,0.88
2022-11-09T07:44:02.345Z,1.00
2022-11-09T07:46:29.520Z,1.00
2022-11-09T07:48:56.654Z,0.80
2022-11-09T07:51:23.731Z,1.08
2022-11-09T07:53:50.784Z,0.88
2022-11-09T07:56:18.067Z,0.90
2022-11-09T07:58:45.149Z,1.25
2022-11-09T08:01:12.552Z,1.33
2022-11-09T08:03:39.834Z,2.47
2022-11-09T08:06:07.218Z,1.05
2022-11-09T08:08:34.310Z,0.85
2022-11-09T08:11:01.382Z,1.70
2022-11-09T08:13:28.483Z,1.55
2022-11-09T08:15:55.546Z,3.65
2022-11-09T08:18:23.465Z,2.05
2022-11-09T08:20:50.710Z,1.02
2022-11-09T08:23:19.382Z,1.00
2022-11-09T08:25:48.135Z,1.10
2022-11-09T08:28:18.719Z,0.70
2022-11-09T08:30:46.672Z,0.70
2022-11-09T08:33:14.168Z,0.70
2022-11-09T08:35:41.262Z,1.27
2022-11-09T08:38:09.527Z,1.30
2022-11-09T08:40:36.886Z,1.90
2022-11-09T08:43:07.634Z,1.05
2022-11-09T08:45:36.576Z,1.40
2022-11-09T08:48:04.929Z,0.70
2022-11-09T08:50:34.310Z,1.20
2022-11-09T08:53:03.234Z,1.15
2022-11-09T08:55:31.245Z,1.00
2022-11-09T08:57:59.897Z,1.13
2022-11-09T09:00:27.366Z,0.73
2022-11-09T09:02:54.705Z,1.35
2022-11-09T09:05:22.658Z,0.70
2022-11-09T09:07:49.746Z,0.85
2022-11-09T09:10:16.868Z,0.85
2022-11-09T09:12:43.977Z,1.25
2022-11-09T09:15:11.091Z,1.48
2022-11-09T09:17:38.248Z,0.88
2022-11-09T09:20:05.828Z,1.40
2022-11-09T09:22:33.477Z,0.70
2022-11-09T09:25:00.587Z,1.23
2022-11-09T09:27:29.374Z,1.13
2022-11-09T09:29:56.918Z,1.02
2022-11-09T09:32:24.139Z,1.25
2022-11-09T09:34:51.294Z,0.73
2022-11-09T09:37:18.838Z,0.88
2022-11-09T09:39:45.906Z,1.30
2022-11-09T09:42:18.820Z,1.70
2022-11-09T09:45:00.072Z,0.95
2022-11-09T09:47:46.089Z,0.80
2022-11-09T09:50:20.794Z,1.15
2022-11-09T09:53:17.724Z,0.77
2022-11-09T09:55:44.472Z,1.13
2022-11-09T09:58:12.930Z,0.80
2022-11-09T10:00:41.485Z,0.85
2022-11-09T10:03:17.610Z,1.40
2022-11-09T10:05:57.093Z,1.00
2022-11-09T10:11:22.322Z,0.85
2022-11-09T10:13:55.380Z,1.42
2022-11-09T10:16:57.989Z,1.02
2022-11-09T10:19:51.138Z,1.20
2022-11-09T10:22:39.648Z,1.05
2022-11-09T10:25:27.566Z,0.83
2022-11-09T10:28:13.086Z,1.25
2022-11-09T10:30:40.698Z,1.25
2022-11-09T10:33:10.703Z,1.42
2022-11-09T10:35:45.001Z,1.00
2022-11-09T10:38:21.209Z,1.02
2022-11-09T10:41:26.052Z,1.00
2022-11-09T10:44:17.771Z,1.80
2022-11-09T10:47:09.746Z,0.75
2022-11-09T10:50:22.086Z,0.85
2022-11-09T10:53:20.950Z,0.80
2022-11-09T10:56:21.781Z,1.00
2022-11-09T10:59:35.819Z,1.77
2022-11-09T11:02:24.296Z,1.55
2022-11-09T11:05:09.912Z,1.17
2022-11-09T11:07:55.673Z,0.50
2022-11-09T11:10:41.266Z,0.85
2022-11-09T11:13:27.177Z,0.85
2022-11-09T11:16:15.798Z,0.90
2022-11-09T11:19:02.099Z,1.07
2022-11-09T11:22:19.631Z,1.00
2022-11-09T11:25:19.808Z,1.25
2022-11-09T11:28:21.795Z,1.10
2022-11-09T11:31:19.039Z,1.10
2022-11-09T11:34:10.456Z,0.90
2022-11-09T11:37:08.206Z,0.90
2022-11-09T11:40:05.596Z,1.40
2022-11-09T11:43:18.988Z,0.80
2022-11-09T11:46:27.586Z,1.40
2022-11-09T11:49:22.505Z,0.82
2022-11-09T11:52:37.219Z,1.33
2022-11-09T11:55:34.847Z,1.08
2022-11-09T11:58:55.105Z,1.60
2022-11-09T12:01:50.552Z,0.88
2022-11-09T12:04:42.349Z,1.52
2022-11-09T12:07:43.073Z,1.02
2022-11-09T12:10:57.063Z,1.08
2022-11-09T12:13:57.130Z,0.88
2022-11-09T12:17:22.886Z,1.25
2022-11-09T12:20:34.367Z,1.13
2022-11-09T12:23:24.200Z,1.60
2022-11-09T12:26:45.468Z,1.05
2022-11-09T12:29:44.286Z,1.15
2022-11-09T12:32:50.790Z,0.57
2022-11-09T12:35:55.938Z,1.60
2022-11-09T12:38:49.142Z,1.58
2022-11-09T12:41:37.752Z,1.13
2022-11-09T12:44:32.255Z,1.15
2022-11-09T12:47:27.064Z,1.80
2022-11-09T12:50:16.443Z,1.30
2022-11-09T12:53:04.305Z,1.17
2022-11-09T12:56:02.465Z,1.00
2022-11-09T12:58:48.340Z,1.10
2022-11-09T13:01:33.897Z,0.90
2022-11-09T13:04:22.101Z,1.40
2022-11-09T13:07:14.041Z,1.10
2022-11-09T13:10:02.264Z,1.10
2022-11-09T13:12:47.771Z,1.80
2022-11-09T13:15:34.722Z,1.15
2022-11-09T13:18:34.981Z,1.15
2022-11-09T13:21:21.677Z,0.93
2022-11-09T13:24:32.377Z,1.30
2022-11-09T13:27:33.470Z,1.27
2022-11-09T13:30:24.970Z,1.77
2022-11-09T13:33:22.721Z,1.08
2022-11-09T13:36:09.300Z,1.02
2022-11-09T13:39:23.419Z,1.02
2022-11-09T13:42:28.462Z,1.60
2022-11-09T13:45:41.442Z,1.10
2022-11-09T13:48:46.278Z,1.27
2022-11-09T13:51:34.831Z,1.80
2022-11-09T13:54:37.433Z,1.00
2022-11-09T13:57:25.456Z,1.10
2022-11-09T14:00:23.431Z,1.48
2022-11-09T14:03:24.906Z,1.00
2022-11-09T14:06:12.597Z,1.27
2022-11-09T14:08:59.668Z,1.30
2022-11-09T14:12:02.645Z,1.70
2022-11-09T14:14:57.371Z,1.10
2022-11-09T14:17:54.814Z,1.40
2022-11-09T14:21:09.712Z,0.90
2022-11-09T14:24:01.155Z,0.90
2022-11-09T14:27:14.418Z,0.75
2022-11-09T14:30:03.765Z,1.10
2022-11-09T14:32:51.607Z,1.33
2022-11-09T14:35:39.161Z,0.77
2022-11-09T14:38:28.874Z,1.00
2022-11-09T14:44:28.223Z,1.05
2022-11-09T14:47:25.165Z,1.17
2022-11-09T14:50:17.900Z,2.17
2022-11-09T14:53:05.682Z,1.17
2022-11-09T14:55:53.458Z,1.00
2022-11-09T14:58:42.274Z,1.83
2022-11-09T15:01:28.789Z,1.90
2022-11-09T15:04:20.807Z,2.60
2022-11-09T15:07:06.909Z,1.25
2022-11-09T15:10:00.531Z,1.58
2022-11-09T15:12:56.177Z,1.10
2022-11-09T15:15:49.643Z,1.10
2022-11-09T15:18:41.649Z,1.85
2022-11-09T15:21:27.170Z,1.83
2022-11-09T15:24:16.812Z,1.67
2022-11-09T15:27:02.778Z,2.55
2022-11-09T15:29:48.518Z,2.17
2022-11-09T15:32:37.958Z,1.05
2022-11-09T15:38:30.851Z,1.63
2022-11-09T15:41:19.381Z,0.93
2022-11-09T15:44:05.950Z,1.55
2022-11-09T15:46:53.380Z,0.90
2022-11-09T15:49:39.607Z,2.03
2022-11-09T15:52:25.675Z,1.63
2022-11-09T15:55:15.967Z,1.67
2022-11-09T15:58:01.628Z,1.20
2022-11-09T16:00:47.633Z,1.55
2022-11-09T16:03:33.289Z,2.25
2022-11-09T16:06:22.166Z,2.17
2022-11-09T16:09:08.183Z,1.27
2022-11-09T16:11:53.768Z,1.15
2022-11-09T16:14:40.274Z,1.00
2022-11-09T16:17:25.872Z,1.55
2022-11-09T16:20:11.888Z,1.60
2022-11-09T16:22:57.433Z,1.00
2022-11-09T16:25:44.660Z,1.20
2022-11-09T16:28:30.175Z,1.02
2022-11-09T16:31:16.038Z,0.85
2022-11-09T16:34:01.496Z,1.10
2022-11-09T16:36:53.843Z,1.58
2022-11-09T16:39:42.276Z,1.35
2022-11-09T16:42:28.082Z,1.02
2022-11-09T16:45:16.518Z,1.60
2022-11-09T16:48:10.215Z,1.85
2022-11-09T16:50:56.105Z,1.50
2022-11-09T16:53:41.733Z,1.60
2022-11-09T16:56:27.573Z,1.05
2022-11-09T16:59:14.346Z,1.77
2022-11-09T17:01:59.855Z,1.98
2022-11-09T17:04:45.748Z,1.52
2022-11-09T17:07:42.167Z,1.50
2022-11-09T17:10:28.639Z,1.10
2022-11-09T17:13:14.243Z,1.70
2022-11-09T17:16:06.945Z,2.28
2022-11-09T17:18:54.009Z,2.33
2022-11-09T17:21:39.763Z,1.83
2022-11-09T17:24:26.765Z,1.55
2022-11-09T17:27:12.878Z,1.50
2022-11-09T17:29:58.652Z,1.13
2022-11-09T17:32:46.058Z,2.03
2022-11-09T17:35:36.412Z,1.83
2022-11-09T17:38:22.363Z,2.78
2022-11-09T17:41:19.639Z,1.08
2022-11-09T17:44:05.805Z,1.05
2022-11-09T17:46:51.528Z,2.47
2022-11-09T17:49:37.143Z,1.48
2022-11-09T17:52:22.901Z,2.53
2022-11-09T17:55:08.588Z,1.45
2022-11-09T17:57:54.357Z,3.05
2022-11-09T18:00:40.295Z,1.48
2022-11-09T18:03:26.105Z,1.77
2022-11-09T18:06:23.973Z,1.58
2022-11-09T18:12:16.328Z,1.98
2022-11-09T18:15:01.853Z,1.30
2022-11-09T18:17:47.575Z,1.67
2022-11-09T18:20:33.624Z,1.42
2022-11-09T18:23:19.477Z,1.30
2022-11-09T18:26:07.297Z,1.52
2022-11-09T18:28:55.719Z,2.15
2022-11-09T18:31:41.483Z,1.97
2022-11-09T18:34:27.127Z,1.38
2022-11-09T18:37:12.821Z,1.60
2022-11-09T18:39:58.705Z,2.20
2022-11-09T18:42:44.388Z,2.42
2022-11-09T18:45:30.298Z,1.42
2022-11-09T18:48:15.961Z,1.52
2022-11-09T18:51:01.870Z,1.65
2022-11-09T18:53:48.392Z,1.35
2022-11-09T18:56:33.717Z,2.40
2022-11-09T18:59:19.906Z,1.40
2022-11-09T19:02:07.271Z,1.30
2022-11-09T19:04:52.714Z,1.88
2022-11-09T19:07:39.153Z,1.30
2022-11-09T19:10:24.843Z,1.67
2022-11-09T19:13:10.411Z,1.55
2022-11-09T19:15:58.382Z,2.80
2022-11-09T19:18:44.468Z,2.42
2022-11-09T19:21:38.255Z,1.88
2022-11-09T19:24:25.547Z,1.58
2022-11-09T19:27:11.151Z,1.65
2022-11-09T19:29:56.980Z,1.20
2022-11-09T19:32:42.471Z,3.20
2022-11-09T19:35:33.480Z,2.20
2022-11-09T19:38:19.966Z,1.33
2022-11-09T19:41:06.537Z,2.00
2022-11-09T19:43:54.588Z,2.92
2022-11-09T19:46:40.796Z,2.15
2022-11-09T19:49:26.580Z,1.40
2022-11-09T19:52:12.666Z,2.65
2022-11-09T19:54:58.674Z,3.35
2022-11-09T19:57:44.319Z,2.97
2022-11-09T20:00:29.982Z,4.20
2022-11-09T20:03:15.720Z,2.97
2022-11-09T20:06:02.362Z,3.03
2022-11-09T20:08:48.010Z,2.15
2022-11-09T20:11:52.318Z,2.70
2022-11-09T20:14:37.967Z,2.00
2022-11-09T20:17:23.904Z,1.65
2022-11-09T20:20:10.541Z,2.33
2022-11-09T20:22:56.192Z,2.40
2022-11-09T20:25:42.102Z,1.83
2022-11-09T20:28:27.802Z,2.33
2022-11-09T20:31:16.577Z,2.30
2022-11-09T20:34:02.415Z,4.78
2022-11-09T20:36:48.127Z,4.57
2022-11-09T20:39:35.293Z,4.15
2022-11-09T20:42:21.005Z,2.30
2022-11-09T20:45:06.927Z,2.38
2022-11-09T20:48:38.210Z,1.75
2022-11-09T20:51:06.502Z,2.20
2022-11-09T20:53:52.209Z,2.20
2022-11-09T20:56:37.908Z,4.20
2022-11-09T20:59:23.608Z,2.70
2022-11-09T21:02:14.457Z,2.53
2022-11-09T21:05:00.852Z,2.28
2022-11-09T21:07:46.536Z,3.60
2022-11-09T21:10:32.330Z,7.28
2022-11-09T21:13:18.208Z,10.82
2022-11-09T21:16:15.705Z,2.10
2022-11-09T21:19:01.362Z,2.40
2022-11-09T21:21:47.062Z,3.10
2022-11-09T21:24:51.397Z,3.20
2022-11-09T21:28:06.339Z,2.95
2022-11-09T21:30:51.995Z,2.45
2022-11-09T21:33:37.397Z,3.58
2022-11-09T21:36:23.460Z,2.65
2022-11-09T21:39:11.328Z,2.88
2022-11-09T21:41:58.075Z,2.50
2022-11-09T21:44:43.967Z,2.72
2022-11-09T21:47:30.078Z,2.78
2022-11-09T21:50:15.711Z,3.35
2022-11-09T21:53:01.533Z,3.72
2022-11-09T21:55:47.349Z,2.92
2022-11-09T21:58:33.352Z,3.60
2022-11-09T22:01:19.849Z,4.28
2022-11-09T22:04:08.374Z,3.60
2022-11-09T22:06:53.861Z,3.55
2022-11-09T22:10:05.963Z,3.40
2022-11-09T22:13:03.650Z,3.58
2022-11-09T22:16:07.699Z,3.72
2022-11-09T22:19:12.149Z,2.50
2022-11-09T22:21:57.914Z,2.80
2022-11-09T22:24:43.711Z,2.05
2022-11-09T22:27:33.072Z,4.15
2022-11-09T22:33:04.260Z,2.53
2022-11-09T22:35:56.892Z,2.42
2022-11-09T22:38:42.339Z,2.88
2022-11-09T22:41:28.066Z,1.98
2022-11-09T22:44:13.955Z,2.00
2022-11-09T22:46:59.554Z,3.28
2022-11-09T22:49:45.275Z,2.83
2022-11-09T22:52:30.668Z,2.13
2022-11-09T22:55:18.216Z,2.92
2022-11-09T22:58:04.341Z,2.45
2022-11-09T23:00:50.556Z,2.47
2022-11-09T23:03:36.423Z,2.22
2022-11-09T23:06:23.429Z,2.80
2022-11-09T23:09:09.004Z,2.20
2022-11-09T23:11:54.828Z,2.10
2022-11-09T23:15:00.978Z,1.90
2022-11-09T23:18:05.538Z,1.95
2022-11-09T23:20:51.200Z,2.67
2022-11-09T23:23:37.493Z,2.55
2022-11-09T23:26:24.036Z,2.17
2022-11-09T23:29:09.813Z,2.03
2022-11-09T23:31:57.134Z,1.80
2022-11-09T23:34:42.776Z,1.95
2022-11-09T23:37:28.562Z,2.45
2022-11-09T23:40:14.475Z,1.90
2022-11-09T23:43:05.884Z,1.92
2022-11-09T23:45:51.381Z,2.97
2022-11-09T23:48:38.232Z,3.30
2022-11-09T23:51:23.756Z,6.60
2022-11-09T23:54:09.469Z,8.05
2022-11-09T23:56:55.346Z,4.75
2022-11-09T23:59:41.220Z,4.75
